Pacific Pilot Two — CG2436 — position and weather

sailwx.info

Track history (hours):
 
Tides and Currents Weather Stations Pressure Air Temp Water Temp Dewpoint Dewpoint Depression Visibility Wind Speed Wind Dir Waves Ship Positions

Pacific Pilot Two

Last reported at 2015-Apr-19 12:33 UTC. Time now 2015-Apr-19 12:39 UTC.
Position N 48°24' W 123°24'.

MMSI: 316005175.

Date/timePositionNaut miles runAvg speedWind from/ knotsBaromVisibWave heightAir tempDewpointWater temp
2015-Apr-19 12:33N 48°24' W 123°24'1 1.1
2015-Apr-19 11:33N 48°25' W 123°23'0 0.0
2015-Apr-19 10:33N 48°25' W 123°23'0 0.0
2015-Apr-19 09:33N 48°25' W 123°23'3 2.9
2015-Apr-19 08:33N 48°22' W 123°24'3 2.9
2015-Apr-19 07:33N 48°25' W 123°23'0 0.0
2015-Apr-19 06:33N 48°25' W 123°23'0 0.0
2015-Apr-19 05:33N 48°25' W 123°23'0 0.0
2015-Apr-19 04:33N 48°25' W 123°23'2 1.8
2015-Apr-19 03:33N 48°24' W 123°21'2 1.8
2015-Apr-19 02:33N 48°25' W 123°23'0 0.1
2015-Apr-19 01:33N 48°25' W 123°23'0 0.1
2015-Apr-19 00:33N 48°25' W 123°23'0 0.0
2015-Apr-18 23:33N 48°25' W 123°23'0 0.0
2015-Apr-18 22:33N 48°25' W 123°23'0 0.0
2015-Apr-18 21:33N 48°25' W 123°23'0 0.0
2015-Apr-18 20:33N 48°25' W 123°23'0 0.0
2015-Apr-18 19:33N 48°25' W 123°23'0 0.2
2015-Apr-18 18:33N 48°25' W 123°23'2 2.0
2015-Apr-18 17:33N 48°24' W 123°21'1 1.5
2015-Apr-18 16:34N 48°24' W 123°23'2 2.1
2015-Apr-18 15:33N 48°22' W 123°24'3 3.0
2015-Apr-18 14:34N 48°25' W 123°23'0 0.0
2015-Apr-18 13:33N 48°25' W 123°23'0 0.0
2015-Apr-18 12:33N 48°25' W 123°23'2 1.8
2015-Apr-18 11:33N 48°23' W 123°23'2 1.8
2015-Apr-18 10:33N 48°25' W 123°23'0 0.0
2015-Apr-18 09:32N 48°25' W 123°23'0 0.0
2015-Apr-18 08:33N 48°25' W 123°23'0 0.0
2015-Apr-18 07:33N 48°25' W 123°23'0 0.0
2015-Apr-18 06:31N 48°25' W 123°23'1 1.2
2015-Apr-18 05:33N 48°24' W 123°22'1 1.1
2015-Apr-18 04:33N 48°25' W 123°23'0 0.0
2015-Apr-18 03:33N 48°25' W 123°23'0 0.0
2015-Apr-18 02:33N 48°25' W 123°23'0 0.0
2015-Apr-18 01:34N 48°25' W 123°23'3 2.9
2015-Apr-18 00:33N 48°22' W 123°24'3 2.9
2015-Apr-17 23:33N 48°25' W 123°23'0 0.0
2015-Apr-17 22:33N 48°25' W 123°23'3 3.1
2015-Apr-17 21:33N 48°22' W 123°22'3 3.1
2015-Apr-17 20:33N 48°25' W 123°23'2 2.5
2015-Apr-17 19:33N 48°22' W 123°23'3 3.0
2015-Apr-17 18:33N 48°22' W 123°19'4 4.3
2015-Apr-17 17:33N 48°25' W 123°23'5 4.5
2015-Apr-17 16:33N 48°21' W 123°21'5 4.5
2015-Apr-17 15:33N 48°25' W 123°23'0 0.0
2015-Apr-17 14:33N 48°25' W 123°23'3 3.4
2015-Apr-17 13:33N 48°21' W 123°23'3 3.4
2015-Apr-17 12:33N 48°25' W 123°23'0 0.0
2015-Apr-17 11:33N 48°25' W 123°23'3 3.2
2015-Apr-17 10:34N 48°22' W 123°24'3 3.1
2015-Apr-17 09:33N 48°25' W 123°23'0 0.0
2015-Apr-17 08:34N 48°25' W 123°23'0 0.0
2015-Apr-17 07:34N 48°25' W 123°23'0 0.0
2015-Apr-17 06:33N 48°25' W 123°23'0 0.0
2015-Apr-17 05:34N 48°25' W 123°23'0 0.0
2015-Apr-17 04:33N 48°25' W 123°23'0 0.0
2015-Apr-17 03:33N 48°25' W 123°23'0 0.0
2015-Apr-17 02:33N 48°25' W 123°23'0 0.0
2015-Apr-17 01:33N 48°25' W 123°23'3 2.7
2015-Apr-17 00:34N 48°23' W 123°20'3 2.7
2015-Apr-16 23:33N 48°25' W 123°23'0 0.0
2015-Apr-16 22:33N 48°25' W 123°23'3 3.2
2015-Apr-16 21:33N 48°22' W 123°22'2 1.9
2015-Apr-16 20:33N 48°24' W 123°22'1 1.4
2015-Apr-16 19:33N 48°25' W 123°23'0 0.2
2015-Apr-16 18:33N 48°25' W 123°24'3 2.7
2015-Apr-16 17:34N 48°22' W 123°23'3 2.6
2015-Apr-16 16:33N 48°25' W 123°23'0 0.0
2015-Apr-16 15:33N 48°25' W 123°23'0 0.0
2015-Apr-16 14:33N 48°25' W 123°23'0 0.0
2015-Apr-16 13:33N 48°25' W 123°23'0 0.0
2015-Apr-16 12:33N 48°25' W 123°23'0 0.0
2015-Apr-16 11:33N 48°25' W 123°23'0 0.0
2015-Apr-16 10:33N 48°25' W 123°23'0 0.0
2015-Apr-16 09:33N 48°25' W 123°23'0 0.0
2015-Apr-16 08:33N 48°25' W 123°23'0 0.0
2015-Apr-16 07:33N 48°25' W 123°23'0 0.0
2015-Apr-16 06:33N 48°25' W 123°23'2 2.0
2015-Apr-16 05:32N 48°24' W 123°26'2 1.9
2015-Apr-16 04:32N 48°25' W 123°23'0 0.3
2015-Apr-16 03:17N 48°25' W 123°23'0 0.0
2015-Apr-16 02:25N 48°25' W 123°23'0 0.0
2015-Apr-16 01:31N 48°25' W 123°23'1 1.4
2015-Apr-16 00:34N 48°24' W 123°24'1 1.3
2015-Apr-15 23:32N 48°25' W 123°23'0 0.0
2015-Apr-15 22:20N 48°25' W 123°23'0 0.0
2015-Apr-15 21:28N 48°25' W 123°23'0 0.0
2015-Apr-15 20:28N 48°25' W 123°23'1 0.9
2015-Apr-15 19:30N 48°24' W 123°24'1 0.9
2015-Apr-15 18:33N 48°25' W 123°23'1 0.5
2015-Apr-15 17:30N 48°25' W 123°23'4 3.9
2015-Apr-15 16:32N 48°22' W 123°22'3 3.1
2015-Apr-15 15:30N 48°25' W 123°23'0 0.0
2015-Apr-15 14:33N 48°25' W 123°23'0 0.0
2015-Apr-15 13:33N 48°25' W 123°23'0 0.0
2015-Apr-15 12:30N 48°25' W 123°23'0 0.0
2015-Apr-15 11:32N 48°25' W 123°23'0 0.0
2015-Apr-15 10:32N 48°25' W 123°23'3 2.5
2015-Apr-15 09:30N 48°23' W 123°21'1 0.6
2015-Apr-15 08:34N 48°22' W 123°21'3 3.0
2015-Apr-15 07:31N 48°25' W 123°23'0 0.0
2015-Apr-15 06:33N 48°25' W 123°23'2 2.2
2015-Apr-15 05:33N 48°23' W 123°21'2 2.2
2015-Apr-15 04:33N 48°25' W 123°23'0 0.0
2015-Apr-15 03:33N 48°25' W 123°23'0 0.5
2015-Apr-15 02:33N 48°25' W 123°24'0 0.5
2015-Apr-15 01:33N 48°25' W 123°23'0 0.0
2015-Apr-15 00:33N 48°25' W 123°23'0 0.0
2015-Apr-14 23:33N 48°25' W 123°23'2 2.0
2015-Apr-14 22:33N 48°23' W 123°22'2 2.0
2015-Apr-14 21:33N 48°25' W 123°23'0 0.0
2015-Apr-14 20:33N 48°25' W 123°23'2 2.0
2015-Apr-14 19:33N 48°23' W 123°22'2 2.0
2015-Apr-14 18:33N 48°25' W 123°23'1 1.3
2015-Apr-14 17:34N 48°24' W 123°23'1 1.2
2015-Apr-14 16:33N 48°25' W 123°23'0 0.0
2015-Apr-14 15:33N 48°25' W 123°23'0 0.0
2015-Apr-14 14:32N 48°25' W 123°23'0 0.0
2015-Apr-14 13:33N 48°25' W 123°23'0 0.0
2015-Apr-14 12:33N 48°25' W 123°23'0 0.0
2015-Apr-14 11:33N 48°25' W 123°23'0 0.0
2015-Apr-14 10:33N 48°25' W 123°23'0 0.0
2015-Apr-14 09:32N 48°25' W 123°23'0 0.0
2015-Apr-14 08:32N 48°25' W 123°23'0 0.0
2015-Apr-14 07:33N 48°25' W 123°23'0 0.0
2015-Apr-14 06:33N 48°25' W 123°23'0 0.0
2015-Apr-14 05:30N 48°25' W 123°23'0 0.0
2015-Apr-14 04:33N 48°25' W 123°23'0 0.3
2015-Apr-14 03:33N 48°25' W 123°24'0 0.3
2015-Apr-14 02:33N 48°25' W 123°23'0 0.0
2015-Apr-14 01:32N 48°25' W 123°23'0 0.0
2015-Apr-14 00:33N 48°25' W 123°23'0 0.0
2015-Apr-13 23:34N 48°25' W 123°23'0 0.0
2015-Apr-13 22:33N 48°25' W 123°23'0 0.0
2015-Apr-13 21:33N 48°25' W 123°23'0 0.0
2015-Apr-13 20:33N 48°25' W 123°23'0 0.0
2015-Apr-13 19:31N 48°25' W 123°23'0 0.0
2015-Apr-13 18:33N 48°25' W 123°23'0 0.0
2015-Apr-13 17:30N 48°25' W 123°23'0 0.0
2015-Apr-13 16:30N 48°25' W 123°23'0 0.0
2015-Apr-13 15:34N 48°25' W 123°23'0 0.0
2015-Apr-13 14:33N 48°25' W 123°23'0 0.1
2015-Apr-13 13:33N 48°25' W 123°23'0 0.1
2015-Apr-13 12:33N 48°25' W 123°23'2 2.0
2015-Apr-13 11:34N 48°23' W 123°22'2 2.0
2015-Apr-13 10:33N 48°25' W 123°23'0 0.3
2015-Apr-13 09:33N 48°25' W 123°24'0 0.3
2015-Apr-13 08:33N 48°25' W 123°23'0 0.0
2015-Apr-13 07:33N 48°25' W 123°23'0 0.0
2015-Apr-13 06:33N 48°25' W 123°23'0 0.0
2015-Apr-13 05:33N 48°25' W 123°23'0 0.0
2015-Apr-13 04:33N 48°25' W 123°23'0 0.0
2015-Apr-13 03:33N 48°25' W 123°23'1 1.0
2015-Apr-13 02:34N 48°24' W 123°24'0 0.3
2015-Apr-13 01:34N 48°24' W 123°23'1 1.2
2015-Apr-13 00:33N 48°25' W 123°24'0 0.2
2015-Apr-12 23:33N 48°25' W 123°23'0 0.0
2015-Apr-12 22:32N 48°25' W 123°23'0 0.0
2015-Apr-12 21:33N 48°25' W 123°23'0 0.0
2015-Apr-12 20:33N 48°25' W 123°23'0 0.0
2015-Apr-12 19:33N 48°25' W 123°23'0 0.0
2015-Apr-12 18:33N 48°25' W 123°23'0 0.0
2015-Apr-12 17:33N 48°25' W 123°23'4 3.6
2015-Apr-12 16:33N 48°21' W 123°24'4 3.5
2015-Apr-12 15:33N 48°25' W 123°23'0 0.3
2015-Apr-12 14:33N 48°25' W 123°24'1 0.8
2015-Apr-12 13:33N 48°24' W 123°23'1 0.9
2015-Apr-12 12:33N 48°25' W 123°23'0 0.0
2015-Apr-12 11:33N 48°25' W 123°23'2 2.1
2015-Apr-12 10:33N 48°23' W 123°23'2 2.0
2015-Apr-12 09:33N 48°25' W 123°23'2 2.2
2015-Apr-12 08:33N 48°23' W 123°22'1 1.2
2015-Apr-12 07:34N 48°22' W 123°22'3 3.1
2015-Apr-12 06:33N 48°25' W 123°23'0 0.0
2015-Apr-12 05:33N 48°25' W 123°23'0 0.0
2015-Apr-12 04:33N 48°25' W 123°23'0 0.0
2015-Apr-12 03:33N 48°25' W 123°23'0 0.0
2015-Apr-12 02:33N 48°25' W 123°23'0 0.1
2015-Apr-12 01:33N 48°25' W 123°23'0 0.1
2015-Apr-12 00:33N 48°25' W 123°23'0 0.0
2015-Apr-11 23:33N 48°25' W 123°23'3 3.2
2015-Apr-11 22:33N 48°22' W 123°22'0 0.4
2015-Apr-11 21:34N 48°22' W 123°23'3 3.1
2015-Apr-11 20:33N 48°25' W 123°23'0 0.0
2015-Apr-11 19:33N 48°25' W 123°23'0 0.0
2015-Apr-11 18:34N 48°25' W 123°23'3 3.5
2015-Apr-11 17:33N 48°21' W 123°24'3 3.5
2015-Apr-11 16:33N 48°25' W 123°23'2 2.1
2015-Apr-11 15:33N 48°23' W 123°23'2 2.1
2015-Apr-11 14:33N 48°25' W 123°23'1 0.7
2015-Apr-11 13:33N 48°24' W 123°24'1 0.7
2015-Apr-11 12:33N 48°25' W 123°23'0 0.0
2015-Apr-11 11:33N 48°25' W 123°23'2 1.7
2015-Apr-11 10:34N 48°24' W 123°21'2 1.7
2015-Apr-11 09:33N 48°25' W 123°23'0 0.0
2015-Apr-11 08:33N 48°25' W 123°23'0 0.0
2015-Apr-11 07:33N 48°25' W 123°23'0 0.2
2015-Apr-11 06:33N 48°25' W 123°23'2 1.8
2015-Apr-11 05:33N 48°23' W 123°22'1 1.4
2015-Apr-11 04:33N 48°24' W 123°24'1 0.7
2015-Apr-11 03:33N 48°25' W 123°23'0 0.0
2015-Apr-11 02:33N 48°25' W 123°23'0 0.0
2015-Apr-11 01:33N 48°25' W 123°23'0 0.2
2015-Apr-11 00:34N 48°25' W 123°23'0 0.2
2015-Apr-10 23:33N 48°25' W 123°23'0 0.0
2015-Apr-10 22:33N 48°25' W 123°23'0 0.0
2015-Apr-10 21:33N 48°25' W 123°23'0 0.0
2015-Apr-10 20:34N 48°25' W 123°23'0 0.4
2015-Apr-10 19:33N 48°25' W 123°24'1 1.2
2015-Apr-10 18:33N 48°24' W 123°23'1 1.1
2015-Apr-10 17:34N 48°25' W 123°23'0 0.0
2015-Apr-10 16:34N 48°25' W 123°23'0 0.0
2015-Apr-10 15:34N 48°25' W 123°23'0 0.0
2015-Apr-10 14:34N 48°25' W 123°23'0 0.3
2015-Apr-10 13:34N 48°25' W 123°24'0 0.3
2015-Apr-10 12:33N 48°25' W 123°23'0 0.0
2015-Apr-10 11:31N 48°25' W 123°23'0 0.0
2015-Apr-10 10:33N 48°25' W 123°23'2 1.9
2015-Apr-10 09:33N 48°23' W 123°23'2 1.9
2015-Apr-10 08:33N 48°25' W 123°23'0 0.0
2015-Apr-10 07:34N 48°25' W 123°23'0 0.0
2015-Apr-10 06:33N 48°25' W 123°23'0 0.0
2015-Apr-10 05:34N 48°25' W 123°23'0 0.0
2015-Apr-10 04:33N 48°25' W 123°23'0 0.0
2015-Apr-10 03:34N 48°25' W 123°23'0 0.0
2015-Apr-10 02:33N 48°25' W 123°23'0 0.0
2015-Apr-10 01:31N 48°25' W 123°23'0 0.0
2015-Apr-10 00:29N 48°25' W 123°23'0 0.0
2015-Apr-09 23:33N 48°25' W 123°23'0 0.0
2015-Apr-09 22:30N 48°25' W 123°23'2 2.4
2015-Apr-09 21:34N 48°23' W 123°21'2 2.4
2015-Apr-09 20:33N 48°25' W 123°24'0 0.2
2015-Apr-09 19:32N 48°25' W 123°23'0 0.0
2015-Apr-09 18:28N 48°25' W 123°23'0 0.0
2015-Apr-09 17:33N 48°25' W 123°23'0 0.0
2015-Apr-09 16:33N 48°25' W 123°23'0 0.0
2015-Apr-09 15:33N 48°25' W 123°23'0 0.0
2015-Apr-09 14:33N 48°25' W 123°23'0 0.0
2015-Apr-09 13:33N 48°25' W 123°23'0 0.0
2015-Apr-09 12:33N 48°25' W 123°23'  
Track history (hours):
 
Tides and Currents Weather Stations Pressure Air Temp Water Temp Dewpoint Dewpoint Depression Visibility Wind Speed Wind Dir Waves Ship Positions

Pacific Pilot Two

Last reported at 2015-Apr-19 12:33 UTC. Time now 2015-Apr-19 12:39 UTC.
Position N 48°24' W 123°24'.

MMSI: 316005175.

Date/timePositionNaut miles runAvg speedWind from/ knotsBaromVisibWave heightAir tempDewpointWater temp
2015-Apr-19 12:33N 48°24' W 123°24'1 1.1
2015-Apr-19 11:33N 48°25' W 123°23'0 0.0
2015-Apr-19 10:33N 48°25' W 123°23'0 0.0
2015-Apr-19 09:33N 48°25' W 123°23'3 2.9
2015-Apr-19 08:33N 48°22' W 123°24'3 2.9
2015-Apr-19 07:33N 48°25' W 123°23'0 0.0
2015-Apr-19 06:33N 48°25' W 123°23'0 0.0
2015-Apr-19 05:33N 48°25' W 123°23'0 0.0
2015-Apr-19 04:33N 48°25' W 123°23'2 1.8
2015-Apr-19 03:33N 48°24' W 123°21'2 1.8
2015-Apr-19 02:33N 48°25' W 123°23'0 0.1
2015-Apr-19 01:33N 48°25' W 123°23'0 0.1
2015-Apr-19 00:33N 48°25' W 123°23'0 0.0
2015-Apr-18 23:33N 48°25' W 123°23'0 0.0
2015-Apr-18 22:33N 48°25' W 123°23'0 0.0
2015-Apr-18 21:33N 48°25' W 123°23'0 0.0
2015-Apr-18 20:33N 48°25' W 123°23'0 0.0
2015-Apr-18 19:33N 48°25' W 123°23'0 0.2
2015-Apr-18 18:33N 48°25' W 123°23'2 2.0
2015-Apr-18 17:33N 48°24' W 123°21'1 1.5
2015-Apr-18 16:34N 48°24' W 123°23'2 2.1
2015-Apr-18 15:33N 48°22' W 123°24'3 3.0
2015-Apr-18 14:34N 48°25' W 123°23'0 0.0
2015-Apr-18 13:33N 48°25' W 123°23'0 0.0
2015-Apr-18 12:33N 48°25' W 123°23'2 1.8
2015-Apr-18 11:33N 48°23' W 123°23'2 1.8
2015-Apr-18 10:33N 48°25' W 123°23'0 0.0
2015-Apr-18 09:32N 48°25' W 123°23'0 0.0
2015-Apr-18 08:33N 48°25' W 123°23'0 0.0
2015-Apr-18 07:33N 48°25' W 123°23'0 0.0
2015-Apr-18 06:31N 48°25' W 123°23'1 1.2
2015-Apr-18 05:33N 48°24' W 123°22'1 1.1
2015-Apr-18 04:33N 48°25' W 123°23'0 0.0
2015-Apr-18 03:33N 48°25' W 123°23'0 0.0
2015-Apr-18 02:33N 48°25' W 123°23'0 0.0
2015-Apr-18 01:34N 48°25' W 123°23'3 2.9
2015-Apr-18 00:33N 48°22' W 123°24'3 2.9
2015-Apr-17 23:33N 48°25' W 123°23'0 0.0
2015-Apr-17 22:33N 48°25' W 123°23'3 3.1
2015-Apr-17 21:33N 48°22' W 123°22'3 3.1
2015-Apr-17 20:33N 48°25' W 123°23'2 2.5
2015-Apr-17 19:33N 48°22' W 123°23'3 3.0
2015-Apr-17 18:33N 48°22' W 123°19'4 4.3
2015-Apr-17 17:33N 48°25' W 123°23'5 4.5
2015-Apr-17 16:33N 48°21' W 123°21'5 4.5
2015-Apr-17 15:33N 48°25' W 123°23'0 0.0
2015-Apr-17 14:33N 48°25' W 123°23'3 3.4
2015-Apr-17 13:33N 48°21' W 123°23'3 3.4
2015-Apr-17 12:33N 48°25' W 123°23'0 0.0
2015-Apr-17 11:33N 48°25' W 123°23'3 3.2
2015-Apr-17 10:34N 48°22' W 123°24'3 3.1
2015-Apr-17 09:33N 48°25' W 123°23'0 0.0
2015-Apr-17 08:34N 48°25' W 123°23'0 0.0
2015-Apr-17 07:34N 48°25' W 123°23'0 0.0
2015-Apr-17 06:33N 48°25' W 123°23'0 0.0
2015-Apr-17 05:34N 48°25' W 123°23'0 0.0
2015-Apr-17 04:33N 48°25' W 123°23'0 0.0
2015-Apr-17 03:33N 48°25' W 123°23'0 0.0
2015-Apr-17 02:33N 48°25' W 123°23'0 0.0
2015-Apr-17 01:33N 48°25' W 123°23'3 2.7
2015-Apr-17 00:34N 48°23' W 123°20'3 2.7
2015-Apr-16 23:33N 48°25' W 123°23'0 0.0
2015-Apr-16 22:33N 48°25' W 123°23'3 3.2
2015-Apr-16 21:33N 48°22' W 123°22'2 1.9
2015-Apr-16 20:33N 48°24' W 123°22'1 1.4
2015-Apr-16 19:33N 48°25' W 123°23'0 0.2
2015-Apr-16 18:33N 48°25' W 123°24'3 2.7
2015-Apr-16 17:34N 48°22' W 123°23'3 2.6
2015-Apr-16 16:33N 48°25' W 123°23'0 0.0
2015-Apr-16 15:33N 48°25' W 123°23'0 0.0
2015-Apr-16 14:33N 48°25' W 123°23'0 0.0
2015-Apr-16 13:33N 48°25' W 123°23'0 0.0
2015-Apr-16 12:33N 48°25' W 123°23'0 0.0
2015-Apr-16 11:33N 48°25' W 123°23'0 0.0
2015-Apr-16 10:33N 48°25' W 123°23'0 0.0
2015-Apr-16 09:33N 48°25' W 123°23'0 0.0
2015-Apr-16 08:33N 48°25' W 123°23'0 0.0
2015-Apr-16 07:33N 48°25' W 123°23'0 0.0
2015-Apr-16 06:33N 48°25' W 123°23'2 2.0
2015-Apr-16 05:32N 48°24' W 123°26'2 1.9
2015-Apr-16 04:32N 48°25' W 123°23'0 0.3
2015-Apr-16 03:17N 48°25' W 123°23'0 0.0
2015-Apr-16 02:25N 48°25' W 123°23'0 0.0
2015-Apr-16 01:31N 48°25' W 123°23'1 1.4
2015-Apr-16 00:34N 48°24' W 123°24'1 1.3
2015-Apr-15 23:32N 48°25' W 123°23'0 0.0
2015-Apr-15 22:20N 48°25' W 123°23'0 0.0
2015-Apr-15 21:28N 48°25' W 123°23'0 0.0
2015-Apr-15 20:28N 48°25' W 123°23'1 0.9
2015-Apr-15 19:30N 48°24' W 123°24'1 0.9
2015-Apr-15 18:33N 48°25' W 123°23'1 0.5
2015-Apr-15 17:30N 48°25' W 123°23'4 3.9
2015-Apr-15 16:32N 48°22' W 123°22'3 3.1
2015-Apr-15 15:30N 48°25' W 123°23'0 0.0
2015-Apr-15 14:33N 48°25' W 123°23'0 0.0
2015-Apr-15 13:33N 48°25' W 123°23'0 0.0
2015-Apr-15 12:30N 48°25' W 123°23'0 0.0
2015-Apr-15 11:32N 48°25' W 123°23'0 0.0
2015-Apr-15 10:32N 48°25' W 123°23'3 2.5
2015-Apr-15 09:30N 48°23' W 123°21'1 0.6
2015-Apr-15 08:34N 48°22' W 123°21'3 3.0
2015-Apr-15 07:31N 48°25' W 123°23'0 0.0
2015-Apr-15 06:33N 48°25' W 123°23'2 2.2
2015-Apr-15 05:33N 48°23' W 123°21'2 2.2
2015-Apr-15 04:33N 48°25' W 123°23'0 0.0
2015-Apr-15 03:33N 48°25' W 123°23'0 0.5
2015-Apr-15 02:33N 48°25' W 123°24'0 0.5
2015-Apr-15 01:33N 48°25' W 123°23'0 0.0
2015-Apr-15 00:33N 48°25' W 123°23'0 0.0
2015-Apr-14 23:33N 48°25' W 123°23'2 2.0
2015-Apr-14 22:33N 48°23' W 123°22'2 2.0
2015-Apr-14 21:33N 48°25' W 123°23'0 0.0
2015-Apr-14 20:33N 48°25' W 123°23'2 2.0
2015-Apr-14 19:33N 48°23' W 123°22'2 2.0
2015-Apr-14 18:33N 48°25' W 123°23'1 1.3
2015-Apr-14 17:34N 48°24' W 123°23'1 1.2
2015-Apr-14 16:33N 48°25' W 123°23'0 0.0
2015-Apr-14 15:33N 48°25' W 123°23'0 0.0
2015-Apr-14 14:32N 48°25' W 123°23'0 0.0
2015-Apr-14 13:33N 48°25' W 123°23'0 0.0
2015-Apr-14 12:33N 48°25' W 123°23'0 0.0
2015-Apr-14 11:33N 48°25' W 123°23'0 0.0
2015-Apr-14 10:33N 48°25' W 123°23'0 0.0
2015-Apr-14 09:32N 48°25' W 123°23'0 0.0
2015-Apr-14 08:32N 48°25' W 123°23'0 0.0
2015-Apr-14 07:33N 48°25' W 123°23'0 0.0
2015-Apr-14 06:33N 48°25' W 123°23'0 0.0
2015-Apr-14 05:30N 48°25' W 123°23'0 0.0
2015-Apr-14 04:33N 48°25' W 123°23'0 0.3
2015-Apr-14 03:33N 48°25' W 123°24'0 0.3
2015-Apr-14 02:33N 48°25' W 123°23'0 0.0
2015-Apr-14 01:32N 48°25' W 123°23'0 0.0
2015-Apr-14 00:33N 48°25' W 123°23'0 0.0
2015-Apr-13 23:34N 48°25' W 123°23'0 0.0
2015-Apr-13 22:33N 48°25' W 123°23'0 0.0
2015-Apr-13 21:33N 48°25' W 123°23'0 0.0
2015-Apr-13 20:33N 48°25' W 123°23'0 0.0
2015-Apr-13 19:31N 48°25' W 123°23'0 0.0
2015-Apr-13 18:33N 48°25' W 123°23'0 0.0
2015-Apr-13 17:30N 48°25' W 123°23'0 0.0
2015-Apr-13 16:30N 48°25' W 123°23'0 0.0
2015-Apr-13 15:34N 48°25' W 123°23'0 0.0
2015-Apr-13 14:33N 48°25' W 123°23'0 0.1
2015-Apr-13 13:33N 48°25' W 123°23'0 0.1
2015-Apr-13 12:33N 48°25' W 123°23'2 2.0
2015-Apr-13 11:34N 48°23' W 123°22'2 2.0
2015-Apr-13 10:33N 48°25' W 123°23'0 0.3
2015-Apr-13 09:33N 48°25' W 123°24'0 0.3
2015-Apr-13 08:33N 48°25' W 123°23'0 0.0
2015-Apr-13 07:33N 48°25' W 123°23'0 0.0
2015-Apr-13 06:33N 48°25' W 123°23'0 0.0
2015-Apr-13 05:33N 48°25' W 123°23'0 0.0
2015-Apr-13 04:33N 48°25' W 123°23'0 0.0
2015-Apr-13 03:33N 48°25' W 123°23'1 1.0
2015-Apr-13 02:34N 48°24' W 123°24'0 0.3
2015-Apr-13 01:34N 48°24' W 123°23'1 1.2
2015-Apr-13 00:33N 48°25' W 123°24'0 0.2
2015-Apr-12 23:33N 48°25' W 123°23'0 0.0
2015-Apr-12 22:32N 48°25' W 123°23'0 0.0
2015-Apr-12 21:33N 48°25' W 123°23'0 0.0
2015-Apr-12 20:33N 48°25' W 123°23'0 0.0
2015-Apr-12 19:33N 48°25' W 123°23'0 0.0
2015-Apr-12 18:33N 48°25' W 123°23'0 0.0
2015-Apr-12 17:33N 48°25' W 123°23'4 3.6
2015-Apr-12 16:33N 48°21' W 123°24'4 3.5
2015-Apr-12 15:33N 48°25' W 123°23'0 0.3
2015-Apr-12 14:33N 48°25' W 123°24'1 0.8
2015-Apr-12 13:33N 48°24' W 123°23'1 0.9
2015-Apr-12 12:33N 48°25' W 123°23'0 0.0
2015-Apr-12 11:33N 48°25' W 123°23'2 2.1
2015-Apr-12 10:33N 48°23' W 123°23'2 2.0
2015-Apr-12 09:33N 48°25' W 123°23'2 2.2
2015-Apr-12 08:33N 48°23' W 123°22'1 1.2
2015-Apr-12 07:34N 48°22' W 123°22'3 3.1
2015-Apr-12 06:33N 48°25' W 123°23'0 0.0
2015-Apr-12 05:33N 48°25' W 123°23'0 0.0
2015-Apr-12 04:33N 48°25' W 123°23'0 0.0
2015-Apr-12 03:33N 48°25' W 123°23'0 0.0
2015-Apr-12 02:33N 48°25' W 123°23'0 0.1
2015-Apr-12 01:33N 48°25' W 123°23'0 0.1
2015-Apr-12 00:33N 48°25' W 123°23'0 0.0
2015-Apr-11 23:33N 48°25' W 123°23'3 3.2
2015-Apr-11 22:33N 48°22' W 123°22'0 0.4
2015-Apr-11 21:34N 48°22' W 123°23'3 3.1
2015-Apr-11 20:33N 48°25' W 123°23'0 0.0
2015-Apr-11 19:33N 48°25' W 123°23'0 0.0
2015-Apr-11 18:34N 48°25' W 123°23'3 3.5
2015-Apr-11 17:33N 48°21' W 123°24'3 3.5
2015-Apr-11 16:33N 48°25' W 123°23'2 2.1
2015-Apr-11 15:33N 48°23' W 123°23'2 2.1
2015-Apr-11 14:33N 48°25' W 123°23'1 0.7
2015-Apr-11 13:33N 48°24' W 123°24'1 0.7
2015-Apr-11 12:33N 48°25' W 123°23'0 0.0
2015-Apr-11 11:33N 48°25' W 123°23'2 1.7
2015-Apr-11 10:34N 48°24' W 123°21'2 1.7
2015-Apr-11 09:33N 48°25' W 123°23'0 0.0
2015-Apr-11 08:33N 48°25' W 123°23'0 0.0
2015-Apr-11 07:33N 48°25' W 123°23'0 0.2
2015-Apr-11 06:33N 48°25' W 123°23'2 1.8
2015-Apr-11 05:33N 48°23' W 123°22'1 1.4
2015-Apr-11 04:33N 48°24' W 123°24'1 0.7
2015-Apr-11 03:33N 48°25' W 123°23'0 0.0
2015-Apr-11 02:33N 48°25' W 123°23'0 0.0
2015-Apr-11 01:33N 48°25' W 123°23'0 0.2
2015-Apr-11 00:34N 48°25' W 123°23'0 0.2
2015-Apr-10 23:33N 48°25' W 123°23'0 0.0
2015-Apr-10 22:33N 48°25' W 123°23'0 0.0
2015-Apr-10 21:33N 48°25' W 123°23'0 0.0
2015-Apr-10 20:34N 48°25' W 123°23'0 0.4
2015-Apr-10 19:33N 48°25' W 123°24'1 1.2
2015-Apr-10 18:33N 48°24' W 123°23'1 1.1
2015-Apr-10 17:34N 48°25' W 123°23'0 0.0
2015-Apr-10 16:34N 48°25' W 123°23'0 0.0
2015-Apr-10 15:34N 48°25' W 123°23'0 0.0
2015-Apr-10 14:34N 48°25' W 123°23'0 0.3
2015-Apr-10 13:34N 48°25' W 123°24'0 0.3
2015-Apr-10 12:33N 48°25' W 123°23'0 0.0
2015-Apr-10 11:31N 48°25' W 123°23'0 0.0
2015-Apr-10 10:33N 48°25' W 123°23'2 1.9
2015-Apr-10 09:33N 48°23' W 123°23'2 1.9
2015-Apr-10 08:33N 48°25' W 123°23'0 0.0
2015-Apr-10 07:34N 48°25' W 123°23'0 0.0
2015-Apr-10 06:33N 48°25' W 123°23'0 0.0
2015-Apr-10 05:34N 48°25' W 123°23'0 0.0
2015-Apr-10 04:33N 48°25' W 123°23'0 0.0
2015-Apr-10 03:34N 48°25' W 123°23'0 0.0
2015-Apr-10 02:33N 48°25' W 123°23'0 0.0
2015-Apr-10 01:31N 48°25' W 123°23'0 0.0
2015-Apr-10 00:29N 48°25' W 123°23'0 0.0
2015-Apr-09 23:33N 48°25' W 123°23'0 0.0
2015-Apr-09 22:30N 48°25' W 123°23'2 2.4
2015-Apr-09 21:34N 48°23' W 123°21'2 2.4
2015-Apr-09 20:33N 48°25' W 123°24'0 0.2
2015-Apr-09 19:32N 48°25' W 123°23'0 0.0
2015-Apr-09 18:28N 48°25' W 123°23'0 0.0
2015-Apr-09 17:33N 48°25' W 123°23'0 0.0
2015-Apr-09 16:33N 48°25' W 123°23'0 0.0
2015-Apr-09 15:33N 48°25' W 123°23'0 0.0
2015-Apr-09 14:33N 48°25' W 123°23'0 0.0
2015-Apr-09 13:33N 48°25' W 123°23'0 0.0
2015-Apr-09 12:33N 48°25' W 123°23'  

Dump ship's entire track history